»·PEaware :: OOFDT KSMX-KBFL

OOFDT :: KSMX-KBFL

FLIGHT INFORMATION

Flight Status: Arrived
Operator: Unknown
More flights by this operator :: More flights under this callsign
Pilot: Filip . (22793)
Aircraft: CESSNA 172 SKYHAWK
(C172)
More flights by this aircraft type
Origin: KSMX Santa Maria Pub/Capt Hancock
United States
Destination: KBFL Meadows
United States
More flights between these airports :: More routes between these airports
Route: +
File this flight plan on PilotEdge
Remarks: nffn
Altitude:
(Current/Filed)
0ft
Speed:
(Current/Filed)
0kts
Departed: 29-Jan-19 10:13 AM
Arrived: 29-Jan-19 11:05 AM
Distance/Time
Traveled:
76nm/0:52
Distance/Time
To Go:
Arrived

Flight Plot

Page will automatically refresh every two minutes.


Map Options




Map Legend


Flown Route
Filed Route
Departure Airport
Arrival Airport
Navaid (VOR, NDB)
Fix

Horizontal Profiles

Position Reports

Time Latitude Longitude Heading Altitude Ground
Speed
29-Jan-19 10:00 34.898776 -120.448386 134 265ft 0kts
29-Jan-19 10:01 34.898148 -120.448043 158 265ft 0kts
29-Jan-19 10:02 34.894948 -120.445998 140 265ft 21kts
29-Jan-19 10:03 34.893583 -120.445217 185 265ft 0kts
29-Jan-19 10:04 34.893582 -120.445217 185 265ft 0kts
29-Jan-19 10:05 34.893583 -120.445217 185 265ft 0kts
29-Jan-19 10:06 34.893583 -120.445217 185 265ft 0kts
29-Jan-19 10:07 34.893583 -120.445217 185 265ft 0kts
29-Jan-19 10:08 34.893583 -120.445217 185 265ft 0kts
29-Jan-19 10:09 34.893583 -120.445217 185 265ft 0kts
29-Jan-19 10:10 34.893583 -120.445217 185 265ft 0kts
29-Jan-19 10:11 34.893140 -120.446275 312 265ft 11kts
29-Jan-19 10:12 34.906426 -120.461060 313 935ft 75kts
29-Jan-19 10:13 34.900240 -120.477566 165 1783ft 90kts
29-Jan-19 10:14 34.883427 -120.456409 138 2639ft 92kts
29-Jan-19 10:15 34.875280 -120.430328 68 3464ft 88kts
29-Jan-19 10:16 34.884482 -120.400775 65 4155ft 97kts
29-Jan-19 10:17 34.894678 -120.370882 62 4868ft 97kts
29-Jan-19 10:18 34.903933 -120.339727 60 5525ft 98kts
29-Jan-19 10:19 34.914543 -120.308766 64 6153ft 100kts
29-Jan-19 10:20 34.926879 -120.278555 55 6740ft 100kts
29-Jan-19 10:21 34.940058 -120.248881 53 7320ft 101kts
29-Jan-19 10:22 34.953235 -120.218597 61 7502ft 105kts
29-Jan-19 10:23 34.962965 -120.185063 64 7555ft 107kts
29-Jan-19 10:24 34.975945 -120.153692 54 7580ft 105kts
29-Jan-19 10:25 34.990843 -120.123571 54 7604ft 105kts
29-Jan-19 10:26 34.998560 -120.088543 63 7619ft 108kts
29-Jan-19 10:27 35.014939 -120.059531 49 7646ft 104kts
29-Jan-19 10:28 35.027899 -120.027586 61 7668ft 107kts
29-Jan-19 10:29 35.041242 -119.996430 51 7646ft 105kts
29-Jan-19 10:30 35.052843 -119.963678 66 7581ft 107kts
29-Jan-19 10:31 35.066292 -119.932343 46 7515ft 104kts
29-Jan-19 10:32 35.078622 -119.899993 61 7457ft 106kts
29-Jan-19 10:33 35.092995 -119.869112 56 7415ft 104kts
29-Jan-19 10:34 35.104690 -119.836956 58 7422ft 102kts
29-Jan-19 10:35 35.117563 -119.806120 52 7458ft 102kts
29-Jan-19 10:36 35.128218 -119.773486 59 7497ft 103kts
29-Jan-19 10:37 35.141482 -119.742945 53 7534ft 102kts
29-Jan-19 10:38 35.153518 -119.711332 56 7570ft 103kts
29-Jan-19 10:39 35.166320 -119.680330 49 7606ft 101kts
29-Jan-19 10:40 35.180018 -119.650054 57 7627ft 104kts
29-Jan-19 10:41 35.193182 -119.618397 58 7630ft 106kts
29-Jan-19 10:42 35.204345 -119.585139 59 7591ft 106kts
29-Jan-19 10:43 35.217784 -119.553698 53 7557ft 105kts
29-Jan-19 10:44 35.231023 -119.522155 59 7525ft 106kts
29-Jan-19 10:45 35.241616 -119.488609 65 7494ft 107kts
29-Jan-19 10:46 35.255517 -119.457512 52 7465ft 104kts
29-Jan-19 10:47 35.269007 -119.426104 55 7454ft 104kts
29-Jan-19 10:48 35.281887 -119.394513 57 7437ft 104kts
29-Jan-19 10:49 35.294139 -119.362406 62 7240ft 107kts
29-Jan-19 10:50 35.305405 -119.329235 58 6821ft 105kts
29-Jan-19 10:51 35.318963 -119.297658 58 6355ft 104kts
29-Jan-19 10:52 35.331368 -119.265233 59 5880ft 106kts
29-Jan-19 10:53 35.344336 -119.232979 59 5217ft 105kts
29-Jan-19 10:54 35.358147 -119.201713 55 4573ft 102kts
29-Jan-19 10:55 35.371484 -119.170792 62 3899ft 104kts
29-Jan-19 10:56 35.381901 -119.138126 69 3198ft 102kts
29-Jan-19 10:57 35.387902 -119.104245 80 2481ft 101kts
29-Jan-19 10:58 35.383936 -119.070853 128 1766ft 101kts
29-Jan-19 11:00 35.368494 -119.046747 61 870ft 99kts
29-Jan-19 11:01 35.387156 -119.025414 37 713ft 94kts
29-Jan-19 11:02 35.405537 -119.016986 290 1281ft 87kts
29-Jan-19 11:03 35.415397 -119.033895 312 834ft 61kts
29-Jan-19 11:04 35.426908 -119.047906 311 634ft 57kts
29-Jan-19 11:05 35.435821 -119.058385 16 510ft 18kts
29-Jan-19 11:06 35.436366 -119.057256 100 510ft 0kts
29-Jan-19 11:07 35.434846 -119.055245 140 510ft 13kts
29-Jan-19 11:08 35.433875 -119.053633 209 510ft 0kts
29-Jan-19 11:09 35.433868 -119.053641 224 510ft 0kts

Navigation Log

Ident Type
Flight plan parsing failed, navigation log unavailable